sensor_id;sensor_type;location;lat;lon;timestamp;pressure;altitude;pressure_sealevel;temperature;humidity
73952;BME280;62304;47.662;18.324;2023-12-20T00:00:34;100393.22;;;-2.11;100.00
73952;BME280;62304;47.662;18.324;2023-12-20T00:03:37;100392.66;;;-2.13;100.00
73952;BME280;62304;47.662;18.324;2023-12-20T00:06:44;100381.47;;;-2.35;100.00
73952;BME280;62304;47.662;18.324;2023-12-20T00:09:48;100363.84;;;-2.38;100.00
73952;BME280;62304;47.662;18.324;2023-12-20T00:12:51;100352.34;;;-2.58;100.00
73952;BME280;62304;47.662;18.324;2023-12-20T00:15:55;100356.22;;;-2.69;100.00
73952;BME280;62304;47.662;18.324;2023-12-20T00:18:58;100352.37;;;-2.63;100.00
73952;BME280;62304;47.662;18.324;2023-12-20T00:22:01;100352.09;;;-2.62;100.00
73952;BME280;62304;47.662;18.324;2023-12-20T00:25:05;100337.62;;;-2.52;100.00
73952;BME280;62304;47.662;18.324;2023-12-20T00:28:09;100325.81;;;-2.38;100.00
73952;BME280;62304;47.662;18.324;2023-12-20T00:31:12;100349.28;;;-2.23;100.00
73952;BME280;62304;47.662;18.324;2023-12-20T00:34:15;100343.78;;;-2.13;100.00
73952;BME280;62304;47.662;18.324;2023-12-20T00:37:18;100329.75;;;-1.97;100.00
73952;BME280;62304;47.662;18.324;2023-12-20T00:40:22;100313.50;;;-2.02;100.00
73952;BME280;62304;47.662;18.324;2023-12-20T00:43:25;100307.19;;;-1.97;100.00
73952;BME280;62304;47.662;18.324;2023-12-20T00:46:28;100315.81;;;-1.90;100.00
73952;BME280;62304;47.662;18.324;2023-12-20T00:49:31;100316.72;;;-2.00;100.00
73952;BME280;62304;47.662;18.324;2023-12-20T00:52:35;100319.91;;;-1.93;100.00
73952;BME280;62304;47.662;18.324;2023-12-20T00:55:38;100327.59;;;-2.00;100.00
73952;BME280;62304;47.662;18.324;2023-12-20T00:58:41;100326.72;;;-1.95;100.00
73952;BME280;62304;47.662;18.324;2023-12-20T01:01:44;100317.78;;;-1.96;100.00
73952;BME280;62304;47.662;18.324;2023-12-20T01:04:48;100317.66;;;-1.86;100.00
73952;BME280;62304;47.662;18.324;2023-12-20T01:07:50;100311.41;;;-1.86;100.00
73952;BME280;62304;47.662;18.324;2023-12-20T01:10:54;100317.34;;;-1.84;100.00
73952;BME280;62304;47.662;18.324;2023-12-20T01:13:57;100299.81;;;-1.73;100.00
73952;BME280;62304;47.662;18.324;2023-12-20T01:17:01;100306.25;;;-1.64;100.00
73952;BME280;62304;47.662;18.324;2023-12-20T01:20:04;100307.41;;;-1.70;100.00
73952;BME280;62304;47.662;18.324;2023-12-20T01:23:08;100297.38;;;-1.70;100.00
73952;BME280;62304;47.662;18.324;2023-12-20T01:26:11;100297.38;;;-1.70;100.00
73952;BME280;62304;47.662;18.324;2023-12-20T01:29:15;100289.78;;;-1.73;100.00
73952;BME280;62304;47.662;18.324;2023-12-20T01:32:18;100280.91;;;-1.78;100.00
73952;BME280;62304;47.662;18.324;2023-12-20T01:35:21;100270.47;;;-1.71;100.00
73952;BME280;62304;47.662;18.324;2023-12-20T01:38:24;100273.47;;;-1.73;100.00
73952;BME280;62304;47.662;18.324;2023-12-20T01:41:29;100258.03;;;-1.77;100.00
73952;BME280;62304;47.662;18.324;2023-12-20T01:44:32;100250.06;;;-1.92;99.99
73952;BME280;62304;47.662;18.324;2023-12-20T01:47:36;100242.50;;;-2.42;100.00
73952;BME280;62304;47.662;18.324;2023-12-20T01:50:39;100249.88;;;-2.48;100.00
73952;BME280;62304;47.662;18.324;2023-12-20T01:53:43;100242.09;;;-2.54;100.00
73952;BME280;62304;47.662;18.324;2023-12-20T01:56:47;100242.62;;;-2.29;100.00
73952;BME280;62304;47.662;18.324;2023-12-20T01:59:51;100236.72;;;-2.12;100.00
73952;BME280;62304;47.662;18.324;2023-12-20T02:02:55;100235.75;;;-2.21;100.00
73952;BME280;62304;47.662;18.324;2023-12-20T02:05:58;100208.97;;;-2.56;100.00
73952;BME280;62304;47.662;18.324;2023-12-20T02:09:02;100212.59;;;-2.37;100.00
73952;BME280;62304;47.662;18.324;2023-12-20T02:12:05;100204.94;;;-2.35;100.00
73952;BME280;62304;47.662;18.324;2023-12-20T02:15:09;100201.38;;;-2.54;100.00
73952;BME280;62304;47.662;18.324;2023-12-20T02:18:12;100200.91;;;-2.38;100.00
73952;BME280;62304;47.662;18.324;2023-12-20T02:21:25;100209.56;;;-2.12;100.00
73952;BME280;62304;47.662;18.324;2023-12-20T02:24:28;100228.88;;;-2.14;100.00
73952;BME280;62304;47.662;18.324;2023-12-20T02:27:32;100224.00;;;-2.17;100.00
73952;BME280;62304;47.662;18.324;2023-12-20T02:30:35;100214.13;;;-2.31;100.00
73952;BME280;62304;47.662;18.324;2023-12-20T02:33:38;100218.62;;;-2.22;100.00
73952;BME280;62304;47.662;18.324;2023-12-20T02:36:42;100222.50;;;-2.28;100.00
73952;BME280;62304;47.662;18.324;2023-12-20T02:39:45;100222.97;;;-2.21;100.00
73952;BME280;62304;47.662;18.324;2023-12-20T02:42:48;100219.19;;;-2.20;100.00
73952;BME280;62304;47.662;18.324;2023-12-20T02:45:51;100227.25;;;-2.15;100.00
73952;BME280;62304;47.662;18.324;2023-12-20T02:48:54;100221.97;;;-2.06;100.00
73952;BME280;62304;47.662;18.324;2023-12-20T02:51:58;100230.84;;;-2.19;100.00
73952;BME280;62304;47.662;18.324;2023-12-20T02:55:01;100217.88;;;-2.04;100.00
73952;BME280;62304;47.662;18.324;2023-12-20T02:58:04;100213.25;;;-2.03;100.00
73952;BME280;62304;47.662;18.324;2023-12-20T03:01:07;100222.00;;;-1.88;100.00
73952;BME280;62304;47.662;18.324;2023-12-20T03:04:11;100206.09;;;-1.94;100.00
73952;BME280;62304;47.662;18.324;2023-12-20T03:07:14;100209.00;;;-2.09;100.00
73952;BME280;62304;47.662;18.324;2023-12-20T03:10:19;100215.31;;;-1.95;100.00
73952;BME280;62304;47.662;18.324;2023-12-20T03:13:28;100185.50;;;-2.00;100.00
73952;BME280;62304;47.662;18.324;2023-12-20T03:16:31;100203.50;;;-2.04;100.00
73952;BME280;62304;47.662;18.324;2023-12-20T03:19:38;100198.50;;;-1.97;100.00
73952;BME280;62304;47.662;18.324;2023-12-20T03:22:41;100205.12;;;-1.85;100.00
73952;BME280;62304;47.662;18.324;2023-12-20T03:25:44;100207.25;;;-1.82;100.00
73952;BME280;62304;47.662;18.324;2023-12-20T03:28:47;100195.31;;;-1.81;100.00
73952;BME280;62304;47.662;18.324;2023-12-20T03:31:51;100187.94;;;-1.80;100.00
73952;BME280;62304;47.662;18.324;2023-12-20T03:34:55;100178.59;;;-1.74;100.00
73952;BME280;62304;47.662;18.324;2023-12-20T03:37:58;100188.81;;;-1.85;100.00
73952;BME280;62304;47.662;18.324;2023-12-20T03:41:04;100195.31;;;-1.81;100.00
73952;BME280;62304;47.662;18.324;2023-12-20T03:44:07;100195.53;;;-1.77;100.00
73952;BME280;62304;47.662;18.324;2023-12-20T03:47:10;100184.03;;;-1.74;100.00
73952;BME280;62304;47.662;18.324;2023-12-20T03:50:13;100155.41;;;-1.85;100.00
73952;BME280;62304;47.662;18.324;2023-12-20T03:53:17;100172.37;;;-1.75;100.00
73952;BME280;62304;47.662;18.324;2023-12-20T03:56:20;100151.50;;;-1.79;100.00
73952;BME280;62304;47.662;18.324;2023-12-20T03:59:24;100170.91;;;-1.86;100.00
73952;BME280;62304;47.662;18.324;2023-12-20T04:02:27;100171.84;;;-1.95;100.00
73952;BME280;62304;47.662;18.324;2023-12-20T04:05:30;100164.78;;;-1.96;100.00
73952;BME280;62304;47.662;18.324;2023-12-20T04:08:33;100164.78;;;-1.96;100.00
73952;BME280;62304;47.662;18.324;2023-12-20T04:11:36;100159.97;;;-1.99;100.00
73952;BME280;62304;47.662;18.324;2023-12-20T04:14:39;100144.44;;;-1.99;100.00
73952;BME280;62304;47.662;18.324;2023-12-20T04:17:43;100151.81;;;-1.99;100.00
73952;BME280;62304;47.662;18.324;2023-12-20T04:20:46;100141.87;;;-1.90;100.00
73952;BME280;62304;47.662;18.324;2023-12-20T04:23:50;100147.53;;;-2.05;100.00
73952;BME280;62304;47.662;18.324;2023-12-20T04:26:53;100147.59;;;-2.10;100.00
73952;BME280;62304;47.662;18.324;2023-12-20T04:29:56;100156.25;;;-2.08;100.00
73952;BME280;62304;47.662;18.324;2023-12-20T04:32:59;100145.31;;;-2.03;100.00
73952;BME280;62304;47.662;18.324;2023-12-20T04:36:03;100137.75;;;-2.06;100.00
73952;BME280;62304;47.662;18.324;2023-12-20T04:39:07;100126.88;;;-2.06;100.00
73952;BME280;62304;47.662;18.324;2023-12-20T04:42:10;100125.03;;;-2.29;100.00
73952;BME280;62304;47.662;18.324;2023-12-20T04:45:13;100117.25;;;-2.36;100.00
73952;BME280;62304;47.662;18.324;2023-12-20T04:48:18;100103.00;;;-2.70;100.00
73952;BME280;62304;47.662;18.324;2023-12-20T04:51:21;100088.91;;;-2.95;100.00
73952;BME280;62304;47.662;18.324;2023-12-20T04:54:25;100083.81;;;-2.78;100.00
73952;BME280;62304;47.662;18.324;2023-12-20T04:57:28;100074.44;;;-3.09;100.00
73952;BME280;62304;47.662;18.324;2023-12-20T05:00:31;100066.81;;;-3.07;100.00
73952;BME280;62304;47.662;18.324;2023-12-20T05:03:34;100073.50;;;-3.00;100.00
73952;BME280;62304;47.662;18.324;2023-12-20T05:06:38;100090.56;;;-2.94;100.00
73952;BME280;62304;47.662;18.324;2023-12-20T05:09:41;100076.16;;;-2.95;100.00
73952;BME280;62304;47.662;18.324;2023-12-20T05:12:44;100089.62;;;-2.85;100.00
73952;BME280;62304;47.662;18.324;2023-12-20T05:15:47;100083.25;;;-2.75;100.00
73952;BME280;62304;47.662;18.324;2023-12-20T05:18:51;100076.97;;;-2.71;100.00
73952;BME280;62304;47.662;18.324;2023-12-20T05:21:55;100109.84;;;-2.30;100.00
73952;BME280;62304;47.662;18.324;2023-12-20T05:24:58;100099.41;;;-2.23;100.00
73952;BME280;62304;47.662;18.324;2023-12-20T05:28:02;100125.19;;;-2.21;100.00
73952;BME280;62304;47.662;18.324;2023-12-20T05:31:05;100128.22;;;-2.22;100.00
73952;BME280;62304;47.662;18.324;2023-12-20T05:34:09;100149.41;;;-2.24;100.00
73952;BME280;62304;47.662;18.324;2023-12-20T05:37:13;100145.19;;;-2.35;100.00
73952;BME280;62304;47.662;18.324;2023-12-20T05:40:16;100119.66;;;-2.34;100.00
73952;BME280;62304;47.662;18.324;2023-12-20T05:43:19;100109.19;;;-2.41;100.00
73952;BME280;62304;47.662;18.324;2023-12-20T05:46:22;100111.06;;;-2.41;100.00
73952;BME280;62304;47.662;18.324;2023-12-20T05:49:26;100109.97;;;-2.40;100.00
73952;BME280;62304;47.662;18.324;2023-12-20T05:52:29;100105.44;;;-2.26;100.00
73952;BME280;62304;47.662;18.324;2023-12-20T05:55:33;100115.72;;;-2.23;100.00
73952;BME280;62304;47.662;18.324;2023-12-20T05:58:37;100109.06;;;-2.31;100.00
73952;BME280;62304;47.662;18.324;2023-12-20T06:01:40;100092.88;;;-2.41;100.00
73952;BME280;62304;47.662;18.324;2023-12-20T06:04:44;100111.97;;;-2.27;100.00
73952;BME280;62304;47.662;18.324;2023-12-20T06:07:47;100114.00;;;-2.38;100.00
73952;BME280;62304;47.662;18.324;2023-12-20T06:10:53;100113.00;;;-2.42;100.00
73952;BME280;62304;47.662;18.324;2023-12-20T06:13:56;100115.88;;;-2.33;100.00
73952;BME280;62304;47.662;18.324;2023-12-20T06:16:59;100125.03;;;-2.29;100.00
73952;BME280;62304;47.662;18.324;2023-12-20T06:20:02;100121.81;;;-2.31;100.00
73952;BME280;62304;47.662;18.324;2023-12-20T06:23:10;100120.19;;;-2.32;100.00
73952;BME280;62304;47.662;18.324;2023-12-20T06:26:13;100127.56;;;-2.14;100.00
73952;BME280;62304;47.662;18.324;2023-12-20T06:29:17;100128.53;;;-2.05;100.00
73952;BME280;62304;47.662;18.324;2023-12-20T06:32:20;100112.34;;;-2.15;100.00
73952;BME280;62304;47.662;18.324;2023-12-20T06:35:23;100115.56;;;-2.13;100.00
73952;BME280;62304;47.662;18.324;2023-12-20T06:38:26;100123.78;;;-2.18;100.00
73952;BME280;62304;47.662;18.324;2023-12-20T06:41:30;100140.19;;;-2.05;100.00
73952;BME280;62304;47.662;18.324;2023-12-20T06:44:33;100138.50;;;-2.01;100.00
73952;BME280;62304;47.662;18.324;2023-12-20T06:47:37;100132.41;;;-2.11;100.00
73952;BME280;62304;47.662;18.324;2023-12-20T06:50:40;100136.75;;;-2.10;100.00
73952;BME280;62304;47.662;18.324;2023-12-20T06:53:44;100119.34;;;-2.09;100.00
73952;BME280;62304;47.662;18.324;2023-12-20T06:56:47;100137.25;;;-1.90;100.00
73952;BME280;62304;47.662;18.324;2023-12-20T06:59:50;100123.31;;;-2.02;100.00
73952;BME280;62304;47.662;18.324;2023-12-20T07:02:54;100133.28;;;-1.97;100.00
73952;BME280;62304;47.662;18.324;2023-12-20T07:05:58;100130.12;;;-2.04;100.00
73952;BME280;62304;47.662;18.324;2023-12-20T07:09:01;100142.63;;;-2.03;100.00
73952;BME280;62304;47.662;18.324;2023-12-20T07:12:05;100149.00;;;-2.13;100.00
73952;BME280;62304;47.662;18.324;2023-12-20T07:15:08;100149.16;;;-2.04;100.00
73952;BME280;62304;47.662;18.324;2023-12-20T07:18:12;100150.25;;;-2.05;100.00
73952;BME280;62304;47.662;18.324;2023-12-20T07:21:15;100153.84;;;-2.10;100.00
73952;BME280;62304;47.662;18.324;2023-12-20T07:24:19;100147.59;;;-2.10;100.00
73952;BME280;62304;47.662;18.324;2023-12-20T07:27:21;100153.03;;;-2.10;100.00
73952;BME280;62304;47.662;18.324;2023-12-20T07:30:25;100144.34;;;-2.12;100.00
73952;BME280;62304;47.662;18.324;2023-12-20T07:33:29;100158.63;;;-2.02;100.00
73952;BME280;62304;47.662;18.324;2023-12-20T07:36:39;100152.03;;;-1.96;100.00
73952;BME280;62304;47.662;18.324;2023-12-20T07:39:42;100163.19;;;-1.97;100.00
73952;BME280;62304;47.662;18.324;2023-12-20T07:42:46;100162.75;;;-2.04;100.00
73952;BME280;62304;47.662;18.324;2023-12-20T07:45:49;100154.94;;;-2.11;100.00
73952;BME280;62304;47.662;18.324;2023-12-20T07:48:55;100151.25;;;-2.01;100.00
73952;BME280;62304;47.662;18.324;2023-12-20T07:51:58;100153.75;;;-2.05;100.00
73952;BME280;62304;47.662;18.324;2023-12-20T07:55:02;100171.16;;;-2.06;100.00
73952;BME280;62304;47.662;18.324;2023-12-20T07:58:05;100165.16;;;-2.03;100.00
73952;BME280;62304;47.662;18.324;2023-12-20T08:01:08;100175.44;;;-2.00;100.00
73952;BME280;62304;47.662;18.324;2023-12-20T08:04:12;100172.66;;;-1.95;100.00
73952;BME280;62304;47.662;18.324;2023-12-20T08:07:15;100167.59;;;-1.83;100.00
73952;BME280;62304;47.662;18.324;2023-12-20T08:10:19;100164.00;;;-1.78;100.00
73952;BME280;62304;47.662;18.324;2023-12-20T08:13:23;100168.12;;;-1.81;100.00
73952;BME280;62304;47.662;18.324;2023-12-20T08:16:29;100161.28;;;-1.78;100.00
73952;BME280;62304;47.662;18.324;2023-12-20T08:19:32;100167.22;;;-1.76;100.00
73952;BME280;62304;47.662;18.324;2023-12-20T08:22:36;100175.19;;;-1.61;100.00
73952;BME280;62304;47.662;18.324;2023-12-20T08:25:39;100165.97;;;-1.47;100.00
73952;BME280;62304;47.662;18.324;2023-12-20T08:28:42;100165.38;;;-1.62;100.00
73952;BME280;62304;47.662;18.324;2023-12-20T08:31:45;100166.19;;;-1.62;100.00
73952;BME280;62304;47.662;18.324;2023-12-20T08:34:49;100160.75;;;-1.99;100.00
73952;BME280;62304;47.662;18.324;2023-12-20T08:37:52;100162.56;;;-2.13;100.00
73952;BME280;62304;47.662;18.324;2023-12-20T08:40:57;100161.78;;;-1.95;100.00
73952;BME280;62304;47.662;18.324;2023-12-20T08:44:00;100164.16;;;-1.88;100.00
73952;BME280;62304;47.662;18.324;2023-12-20T08:47:06;100161.88;;;-1.81;100.00
73952;BME280;62304;47.662;18.324;2023-12-20T08:50:10;100156.72;;;-1.83;100.00
73952;BME280;62304;47.662;18.324;2023-12-20T08:53:14;100157.25;;;-1.99;100.00
73952;BME280;62304;47.662;18.324;2023-12-20T08:56:18;100154.47;;;-1.76;100.00
73952;BME280;62304;47.662;18.324;2023-12-20T08:59:22;100151.28;;;-1.83;100.00
73952;BME280;62304;47.662;18.324;2023-12-20T09:02:25;100151.00;;;-1.81;100.00
73952;BME280;62304;47.662;18.324;2023-12-20T09:05:29;100155.75;;;-1.55;100.00
73952;BME280;62304;47.662;18.324;2023-12-20T09:08:34;100148.59;;;-1.32;100.00
73952;BME280;62304;47.662;18.324;2023-12-20T09:11:37;100156.31;;;-1.21;100.00
73952;BME280;62304;47.662;18.324;2023-12-20T09:14:41;100157.19;;;-1.25;100.00
73952;BME280;62304;47.662;18.324;2023-12-20T09:17:44;100162.84;;;-1.22;100.00
73952;BME280;62304;47.662;18.324;2023-12-20T09:20:50;100155.78;;;-1.23;100.00
73952;BME280;62304;47.662;18.324;2023-12-20T09:23:54;100146.53;;;-1.40;100.00
73952;BME280;62304;47.662;18.324;2023-12-20T09:27:02;100154.34;;;-1.52;100.00
73952;BME280;62304;47.662;18.324;2023-12-20T09:30:06;100148.25;;;-1.44;100.00
73952;BME280;62304;47.662;18.324;2023-12-20T09:33:10;100146.22;;;-1.20;100.00
73952;BME280;62304;47.662;18.324;2023-12-20T09:36:13;100151.25;;;-1.27;100.00
73952;BME280;62304;47.662;18.324;2023-12-20T09:39:17;100148.69;;;-1.05;100.00
73952;BME280;62304;47.662;18.324;2023-12-20T09:42:37;100142.56;;;-1.29;100.00
73952;BME280;62304;47.662;18.324;2023-12-20T09:45:46;100142.06;;;-0.86;100.00
73952;BME280;62304;47.662;18.324;2023-12-20T09:48:53;100147.44;;;-0.67;100.00
73952;BME280;62304;47.662;18.324;2023-12-20T09:52:00;100140.16;;;-0.72;100.00
73952;BME280;62304;47.662;18.324;2023-12-20T09:55:07;100143.62;;;-0.66;100.00
73952;BME280;62304;47.662;18.324;2023-12-20T09:58:11;100138.56;;;-0.59;100.00
73952;BME280;62304;47.662;18.324;2023-12-20T10:01:15;100127.97;;;-0.34;100.00
73952;BME280;62304;47.662;18.324;2023-12-20T10:04:19;100121.81;;;-0.13;100.00
73952;BME280;62304;47.662;18.324;2023-12-20T10:07:32;100129.59;;;0.16;100.00
73952;BME280;62304;47.662;18.324;2023-12-20T10:10:39;100122.03;;;0.70;100.00
73952;BME280;62304;47.662;18.324;2023-12-20T10:13:49;100123.38;;;1.03;100.00
73952;BME280;62304;47.662;18.324;2023-12-20T10:17:02;100126.31;;;2.19;100.00
73952;BME280;62304;47.662;18.324;2023-12-20T10:20:05;100117.97;;;2.24;98.61
73952;BME280;62304;47.662;18.324;2023-12-20T10:23:16;100115.69;;;3.40;97.86
73952;BME280;62304;47.662;18.324;2023-12-20T10:26:22;100088.44;;;2.97;90.36
73952;BME280;62304;47.662;18.324;2023-12-20T10:29:26;100088.88;;;4.32;85.91
73952;BME280;62304;47.662;18.324;2023-12-20T10:32:31;100095.06;;;4.94;85.56
73952;BME280;62304;47.662;18.324;2023-12-20T10:35:36;100087.69;;;4.54;79.11
73952;BME280;62304;47.662;18.324;2023-12-20T10:38:41;100069.84;;;5.49;80.73
73952;BME280;62304;47.662;18.324;2023-12-20T10:41:45;100067.91;;;5.85;79.37
73952;BME280;62304;47.662;18.324;2023-12-20T10:44:49;100049.41;;;7.35;78.76
73952;BME280;62304;47.662;18.324;2023-12-20T10:47:55;100032.06;;;6.76;76.66
73952;BME280;62304;47.662;18.324;2023-12-20T10:50:59;100042.59;;;5.80;79.47
73952;BME280;62304;47.662;18.324;2023-12-20T10:54:04;100027.63;;;4.85;81.18
73952;BME280;62304;47.662;18.324;2023-12-20T10:57:07;100032.91;;;4.57;83.32
73952;BME280;62304;47.662;18.324;2023-12-20T11:00:13;100017.16;;;3.93;86.54
73952;BME280;62304;47.662;18.324;2023-12-20T11:03:19;100015.94;;;3.82;87.22
73952;BME280;62304;47.662;18.324;2023-12-20T11:06:33;100017.47;;;3.50;88.03
73952;BME280;62304;47.662;18.324;2023-12-20T11:09:42;100015.53;;;3.13;89.64
73952;BME280;62304;47.662;18.324;2023-12-20T11:12:57;100004.66;;;2.96;92.32
73952;BME280;62304;47.662;18.324;2023-12-20T11:16:02;100003.37;;;3.52;89.46
73952;BME280;62304;47.662;18.324;2023-12-20T11:19:07;99994.06;;;4.35;86.54
73952;BME280;62304;47.662;18.324;2023-12-20T11:22:10;99995.00;;;4.95;87.78
73952;BME280;62304;47.662;18.324;2023-12-20T11:25:14;99995.25;;;5.26;84.54
73952;BME280;62304;47.662;18.324;2023-12-20T11:28:21;99989.19;;;5.21;83.27
73952;BME280;62304;47.662;18.324;2023-12-20T11:31:26;99986.41;;;4.97;84.22
73952;BME280;62304;47.662;18.324;2023-12-20T11:34:32;99993.50;;;4.53;86.29
73952;BME280;62304;47.662;18.324;2023-12-20T11:37:37;99988.31;;;4.40;87.15
73952;BME280;62304;47.662;18.324;2023-12-20T11:40:50;99996.75;;;4.55;88.10
73952;BME280;62304;47.662;18.324;2023-12-20T11:43:55;99994.00;;;4.55;88.18
73952;BME280;62304;47.662;18.324;2023-12-20T11:46:59;99985.06;;;5.27;85.87
73952;BME280;62304;47.662;18.324;2023-12-20T11:50:03;99982.81;;;6.04;82.83
73952;BME280;62304;47.662;18.324;2023-12-20T11:53:10;99980.03;;;6.04;81.46
73952;BME280;62304;47.662;18.324;2023-12-20T11:56:15;99987.44;;;5.64;82.65
73952;BME280;62304;47.662;18.324;2023-12-20T11:59:21;99979.66;;;5.54;84.53
73952;BME280;62304;47.662;18.324;2023-12-20T12:02:25;99978.28;;;5.12;85.47
73952;BME280;62304;47.662;18.324;2023-12-20T12:05:30;99973.22;;;4.78;87.58
73952;BME280;62304;47.662;18.324;2023-12-20T12:08:35;99973.78;;;4.72;88.47
73952;BME280;62304;47.662;18.324;2023-12-20T12:11:39;99983.16;;;4.71;88.85
73952;BME280;62304;47.662;18.324;2023-12-20T12:14:44;99992.59;;;5.06;87.33
73952;BME280;62304;47.662;18.324;2023-12-20T12:17:54;99988.13;;;4.89;88.06
73952;BME280;62304;47.662;18.324;2023-12-20T12:21:02;99994.75;;;4.76;88.55
73952;BME280;62304;47.662;18.324;2023-12-20T12:24:14;99997.09;;;4.54;89.12
73952;BME280;62304;47.662;18.324;2023-12-20T12:27:17;99987.81;;;4.26;90.83
73952;BME280;62304;47.662;18.324;2023-12-20T12:30:21;99992.19;;;4.27;91.67
73952;BME280;62304;47.662;18.324;2023-12-20T12:33:25;99997.47;;;4.32;91.12
73952;BME280;62304;47.662;18.324;2023-12-20T12:36:29;99989.97;;;4.20;90.91
73952;BME280;62304;47.662;18.324;2023-12-20T12:39:34;99984.69;;;4.15;90.70
73952;BME280;62304;47.662;18.324;2023-12-20T12:42:37;99987.16;;;4.08;92.15
73952;BME280;62304;47.662;18.324;2023-12-20T12:45:40;99977.03;;;3.88;94.37
73952;BME280;62304;47.662;18.324;2023-12-20T12:48:44;99981.25;;;3.86;93.20
73952;BME280;62304;47.662;18.324;2023-12-20T12:51:49;99975.88;;;3.69;94.93
73952;BME280;62304;47.662;18.324;2023-12-20T12:54:53;99964.03;;;3.77;93.38
73952;BME280;62304;47.662;18.324;2023-12-20T12:57:56;99960.09;;;3.66;93.55
73952;BME280;62304;47.662;18.324;2023-12-20T13:01:00;99966.78;;;3.56;95.35
73952;BME280;62304;47.662;18.324;2023-12-20T13:04:03;99966.16;;;3.51;94.31
73952;BME280;62304;47.662;18.324;2023-12-20T13:07:10;99954.47;;;3.42;95.92
73952;BME280;62304;47.662;18.324;2023-12-20T13:10:14;99967.34;;;3.41;94.87
73952;BME280;62304;47.662;18.324;2023-12-20T13:13:20;99960.00;;;3.33;95.92
73952;BME280;62304;47.662;18.324;2023-12-20T13:16:24;99958.38;;;3.32;95.85
73952;BME280;62304;47.662;18.324;2023-12-20T13:19:27;99970.66;;;3.26;95.75
73952;BME280;62304;47.662;18.324;2023-12-20T13:22:31;99973.81;;;3.08;97.70
73952;BME280;62304;47.662;18.324;2023-12-20T13:25:35;99972.06;;;3.03;98.32
73952;BME280;62304;47.662;18.324;2023-12-20T13:28:38;99978.66;;;3.11;98.47
73952;BME280;62304;47.662;18.324;2023-12-20T13:31:42;99987.00;;;3.14;97.54
73952;BME280;62304;47.662;18.324;2023-12-20T13:34:45;99973.50;;;3.09;97.00
73952;BME280;62304;47.662;18.324;2023-12-20T13:37:49;99984.78;;;3.08;99.05
73952;BME280;62304;47.662;18.324;2023-12-20T13:40:52;99987.00;;;3.14;97.81
73952;BME280;62304;47.662;18.324;2023-12-20T13:43:55;99987.69;;;3.11;98.67
73952;BME280;62304;47.662;18.324;2023-12-20T13:46:58;99995.91;;;3.11;98.75
73952;BME280;62304;47.662;18.324;2023-12-20T13:50:03;99994.09;;;3.15;98.74
73952;BME280;62304;47.662;18.324;2023-12-20T13:53:07;100003.13;;;3.16;97.95
73952;BME280;62304;47.662;18.324;2023-12-20T13:56:10;100001.53;;;3.15;97.33
73952;BME280;62304;47.662;18.324;2023-12-20T13:59:13;99998.16;;;3.09;97.62
73952;BME280;62304;47.662;18.324;2023-12-20T14:02:20;100002.34;;;3.07;98.55
73952;BME280;62304;47.662;18.324;2023-12-20T14:05:23;99998.81;;;3.06;99.39
73952;BME280;62304;47.662;18.324;2023-12-20T14:08:30;100005.91;;;3.07;99.03
73952;BME280;62304;47.662;18.324;2023-12-20T14:11:34;99992.66;;;3.09;99.20
73952;BME280;62304;47.662;18.324;2023-12-20T14:14:39;99990.75;;;3.10;99.48
73952;BME280;62304;47.662;18.324;2023-12-20T14:17:43;99991.06;;;3.08;99.79
73952;BME280;62304;47.662;18.324;2023-12-20T14:20:47;99996.34;;;3.13;99.18
73952;BME280;62304;47.662;18.324;2023-12-20T14:23:52;100000.25;;;3.12;98.48
73952;BME280;62304;47.662;18.324;2023-12-20T14:26:55;99997.19;;;3.05;99.36
73952;BME280;62304;47.662;18.324;2023-12-20T14:30:00;99990.59;;;3.06;99.63
73952;BME280;62304;47.662;18.324;2023-12-20T14:33:04;99996.75;;;2.95;100.00
73952;BME280;62304;47.662;18.324;2023-12-20T14:36:10;100010.59;;;2.98;100.00
73952;BME280;62304;47.662;18.324;2023-12-20T14:39:13;100003.06;;;2.95;100.00
73952;BME280;62304;47.662;18.324;2023-12-20T14:42:17;100007.56;;;2.91;100.00
73952;BME280;62304;47.662;18.324;2023-12-20T14:45:20;100004.50;;;2.93;100.00
73952;BME280;62304;47.662;18.324;2023-12-20T14:48:24;100013.87;;;2.92;100.00
73952;BME280;62304;47.662;18.324;2023-12-20T14:51:27;100000.84;;;2.80;100.00
73952;BME280;62304;47.662;18.324;2023-12-20T14:54:31;100009.19;;;2.84;100.00
73952;BME280;62304;47.662;18.324;2023-12-20T14:57:34;100009.66;;;2.86;100.00
73952;BME280;62304;47.662;18.324;2023-12-20T15:00:37;100008.59;;;2.78;100.00
73952;BME280;62304;47.662;18.324;2023-12-20T15:03:41;100015.69;;;2.71;100.00
73952;BME280;62304;47.662;18.324;2023-12-20T15:06:44;100014.41;;;2.68;100.00
73952;BME280;62304;47.662;18.324;2023-12-20T15:09:49;100019.75;;;2.56;100.00
73952;BME280;62304;47.662;18.324;2023-12-20T15:12:55;100023.94;;;2.54;100.00
73952;BME280;62304;47.662;18.324;2023-12-20T15:16:00;100024.28;;;2.52;100.00
73952;BME280;62304;47.662;18.324;2023-12-20T15:19:03;100024.09;;;2.57;100.00
73952;BME280;62304;47.662;18.324;2023-12-20T15:22:06;100033.75;;;2.63;100.00
73952;BME280;62304;47.662;18.324;2023-12-20T15:25:10;100037.91;;;2.69;100.00
73952;BME280;62304;47.662;18.324;2023-12-20T15:28:13;100030.87;;;2.51;100.00
73952;BME280;62304;47.662;18.324;2023-12-20T15:31:16;100039.88;;;2.43;100.00
73952;BME280;62304;47.662;18.324;2023-12-20T15:34:20;100039.91;;;2.35;100.00
73952;BME280;62304;47.662;18.324;2023-12-20T15:37:23;100038.62;;;2.24;100.00
73952;BME280;62304;47.662;18.324;2023-12-20T15:40:29;100038.78;;;2.27;100.00
73952;BME280;62304;47.662;18.324;2023-12-20T15:43:33;100037.97;;;2.44;100.00
73952;BME280;62304;47.662;18.324;2023-12-20T15:46:36;100028.47;;;2.50;100.00